createdAt,value
2022-08-22T00:02:26.238Z,17.49
2022-08-22T00:03:09.681Z,19.31
2022-08-22T00:05:01.871Z,17.49
2022-08-22T00:07:45.436Z,17.50
2022-08-22T00:10:25.525Z,17.50
2022-08-22T00:12:58.519Z,17.49
2022-08-22T00:15:43.333Z,17.52
2022-08-22T00:18:16.905Z,17.53
2022-08-22T00:20:50.311Z,17.54
2022-08-22T00:23:26.272Z,17.53
2022-08-22T00:26:02.974Z,17.53
2022-08-22T00:28:35.625Z,17.51
2022-08-22T00:31:14.742Z,17.49
2022-08-22T00:33:49.056Z,17.47
2022-08-22T00:36:25.042Z,17.46
2022-08-22T00:38:59.800Z,17.45
2022-08-22T00:41:45.520Z,17.45
2022-08-22T00:44:47.647Z,17.48
2022-08-22T00:47:27.602Z,17.48
2022-08-22T00:50:20.844Z,17.51
2022-08-22T00:53:24.393Z,17.51
2022-08-22T00:56:04.274Z,17.49
2022-08-22T00:59:12.014Z,17.48
2022-08-22T01:01:58.506Z,17.44
2022-08-22T01:04:53.380Z,17.43
2022-08-22T01:07:39.987Z,17.41
2022-08-22T01:10:24.410Z,17.40
2022-08-22T01:13:12.686Z,17.39
2022-08-22T01:15:44.018Z,17.36
2022-08-22T01:18:37.525Z,17.36
2022-08-22T01:21:52.806Z,17.36
2022-08-22T01:25:14.486Z,17.36
2022-08-22T01:28:29.093Z,17.35
2022-08-22T01:31:33.329Z,17.31
2022-08-22T01:35:09.090Z,17.29
2022-08-22T01:37:57.960Z,17.26
2022-08-22T01:41:03.031Z,17.24
2022-08-22T01:43:59.181Z,17.22
2022-08-22T01:46:37.248Z,17.22
2022-08-22T01:49:18.323Z,17.20
2022-08-22T01:51:51.362Z,17.18
2022-08-22T01:54:31.015Z,17.16
2022-08-22T01:57:03.315Z,17.13
2022-08-22T01:59:42.179Z,17.12
2022-08-22T02:02:35.015Z,17.12
2022-08-22T02:05:10.529Z,17.14
2022-08-22T02:07:49.365Z,17.17
2022-08-22T02:10:24.244Z,17.18
2022-08-22T02:13:04.990Z,17.20
2022-08-22T02:15:46.842Z,17.23
2022-08-22T02:18:24.243Z,17.23
2022-08-22T02:21:00.468Z,17.25
2022-08-22T02:23:48.043Z,17.25
2022-08-22T02:26:22.711Z,17.26
2022-08-22T02:28:59.121Z,17.27
2022-08-22T02:31:38.294Z,17.27
2022-08-22T02:34:24.427Z,17.30
2022-08-22T02:36:58.375Z,17.30
2022-08-22T02:39:35.626Z,17.33
2022-08-22T02:42:18.184Z,17.36
2022-08-22T02:44:57.945Z,17.37
2022-08-22T02:47:33.787Z,17.37
2022-08-22T02:50:12.778Z,17.38
2022-08-22T02:52:53.782Z,17.38
2022-08-22T02:55:34.541Z,17.39
2022-08-22T02:58:09.766Z,17.41
2022-08-22T03:00:48.857Z,17.41
2022-08-22T03:03:22.340Z,17.41
2022-08-22T03:06:01.007Z,17.42
2022-08-22T03:08:32.288Z,17.43
2022-08-22T03:11:10.093Z,17.44
2022-08-22T03:13:51.402Z,17.44
2022-08-22T03:16:27.424Z,17.46
2022-08-22T03:19:00.228Z,17.46
2022-08-22T03:21:33.861Z,17.49
2022-08-22T03:24:09.193Z,17.49
2022-08-22T03:26:52.307Z,17.49
2022-08-22T03:29:25.903Z,17.50
2022-08-22T03:32:10.443Z,17.51
2022-08-22T03:34:39.237Z,17.51
2022-08-22T03:37:16.802Z,17.52
2022-08-22T03:39:56.141Z,17.54
2022-08-22T03:42:52.026Z,17.55
2022-08-22T03:45:43.016Z,17.54
2022-08-22T03:49:01.663Z,17.54
2022-08-22T03:51:47.549Z,17.54
2022-08-22T03:54:45.546Z,17.55
2022-08-22T03:57:44.360Z,17.55
2022-08-22T04:00:30.212Z,17.55
2022-08-22T04:03:21.286Z,17.54
2022-08-22T04:06:31.319Z,17.56
2022-08-22T04:09:45.555Z,17.56
2022-08-22T04:12:44.551Z,17.56
2022-08-22T04:15:39.896Z,17.56
2022-08-22T04:18:33.304Z,17.57
2022-08-22T04:21:17.618Z,17.57
2022-08-22T04:24:13.788Z,17.58
2022-08-22T04:26:48.228Z,17.59
2022-08-22T04:29:22.461Z,17.60
2022-08-22T04:31:57.667Z,17.61
2022-08-22T04:34:35.397Z,17.62
2022-08-22T04:37:11.152Z,17.63
2022-08-22T04:39:47.594Z,17.63
2022-08-22T04:42:36.670Z,17.64
2022-08-22T04:45:11.110Z,17.65
2022-08-22T04:47:42.982Z,17.65
2022-08-22T04:50:22.076Z,17.64
2022-08-22T04:53:15.032Z,17.66
2022-08-22T04:55:54.819Z,17.64
2022-08-22T04:58:41.747Z,17.64
2022-08-22T05:01:17.762Z,17.64
2022-08-22T05:03:53.869Z,17.64
2022-08-22T05:06:28.645Z,17.64
2022-08-22T05:09:00.659Z,17.65
2022-08-22T05:11:31.460Z,17.64
2022-08-22T05:14:04.168Z,17.63
2022-08-22T05:16:35.706Z,17.65
2022-08-22T05:19:12.030Z,17.65
2022-08-22T05:21:45.356Z,17.67
2022-08-22T05:24:20.794Z,17.63
2022-08-22T05:26:54.456Z,17.63
2022-08-22T05:29:27.541Z,17.62
2022-08-22T05:31:59.851Z,17.62
2022-08-22T05:34:33.783Z,17.61
2022-08-22T05:37:11.290Z,17.60
2022-08-22T05:39:42.091Z,17.60
2022-08-22T05:42:17.421Z,17.60
2022-08-22T05:44:45.545Z,17.61
2022-08-22T05:47:22.782Z,17.61
2022-08-22T05:50:00.016Z,17.62
2022-08-22T05:52:52.563Z,17.63
2022-08-22T05:55:27.852Z,17.62
2022-08-22T05:58:13.936Z,17.61
2022-08-22T06:00:45.134Z,17.60
2022-08-22T06:03:19.853Z,17.61
2022-08-22T06:05:53.304Z,17.62
2022-08-22T06:08:26.368Z,17.63
2022-08-22T06:10:59.226Z,17.64
2022-08-22T06:13:37.224Z,17.64
2022-08-22T06:16:14.451Z,17.68
2022-08-22T06:18:44.972Z,17.72
2022-08-22T06:21:18.949Z,17.75
2022-08-22T06:23:56.494Z,17.75
2022-08-22T06:26:29.128Z,17.74
2022-08-22T06:29:00.995Z,17.73
2022-08-22T06:31:32.174Z,17.73
2022-08-22T06:34:04.827Z,17.72
2022-08-22T06:36:35.910Z,17.72
2022-08-22T06:39:18.622Z,17.74
2022-08-22T06:41:51.808Z,17.76
2022-08-22T06:44:23.437Z,17.79
2022-08-22T06:46:55.192Z,17.81
2022-08-22T06:49:25.972Z,17.83
2022-08-22T06:51:58.709Z,17.88
2022-08-22T06:54:34.480Z,17.93
2022-08-22T06:57:05.072Z,17.98
2022-08-22T06:59:38.313Z,18.03
2022-08-22T07:02:17.389Z,18.06
2022-08-22T07:04:50.143Z,18.08
2022-08-22T07:07:21.223Z,18.14
2022-08-22T07:09:55.489Z,18.18
2022-08-22T07:12:27.961Z,18.22
2022-08-22T07:15:01.771Z,18.25
2022-08-22T07:17:35.891Z,18.28
2022-08-22T07:20:21.523Z,18.27
2022-08-22T07:22:56.035Z,18.27
2022-08-22T07:25:26.509Z,18.27
2022-08-22T07:28:16.160Z,18.27
2022-08-22T07:30:56.103Z,18.32
2022-08-22T07:33:40.310Z,18.36
2022-08-22T07:36:23.235Z,18.41
2022-08-22T07:39:04.519Z,18.48
2022-08-22T07:41:45.587Z,18.55
2022-08-22T07:44:18.527Z,18.62
2022-08-22T07:46:56.354Z,18.67
2022-08-22T07:49:28.451Z,18.68
2022-08-22T07:51:59.996Z,18.65
2022-08-22T07:54:37.537Z,18.63
2022-08-22T07:57:10.778Z,18.59
2022-08-22T07:59:47.258Z,18.57
2022-08-22T08:02:17.761Z,18.55
2022-08-22T08:04:49.517Z,18.54
2022-08-22T08:07:18.920Z,18.55
2022-08-22T08:09:52.309Z,18.55
2022-08-22T08:12:33.992Z,18.53
2022-08-22T08:15:05.395Z,18.52
2022-08-22T08:17:36.598Z,18.52
2022-08-22T08:20:09.058Z,18.51
2022-08-22T08:22:38.726Z,18.50
2022-08-22T08:25:09.247Z,18.48
2022-08-22T08:27:57.630Z,18.49
2022-08-22T08:30:37.749Z,18.51
2022-08-22T08:33:25.656Z,18.50
2022-08-22T08:36:02.433Z,18.50
2022-08-22T08:38:34.276Z,18.50
2022-08-22T08:41:31.487Z,18.51
2022-08-22T08:44:08.808Z,18.52
2022-08-22T08:47:05.445Z,18.54
2022-08-22T08:49:50.554Z,18.55
2022-08-22T08:52:44.994Z,18.58
2022-08-22T08:55:27.565Z,18.60
2022-08-22T08:58:17.728Z,18.64
2022-08-22T09:00:52.362Z,18.66
2022-08-22T09:03:40.130Z,18.70
2022-08-22T09:06:34.057Z,18.75
2022-08-22T09:09:18.724Z,18.79
2022-08-22T09:12:17.049Z,18.86
2022-08-22T09:15:22.662Z,18.98
2022-08-22T09:18:27.185Z,19.08
2022-08-22T09:21:39.408Z,19.16
2022-08-22T09:24:38.086Z,19.27
2022-08-22T09:27:16.086Z,19.34
2022-08-22T09:29:54.787Z,19.41
2022-08-22T09:32:33.766Z,19.50
2022-08-22T09:35:08.948Z,19.54
2022-08-22T09:37:46.658Z,19.59
2022-08-22T09:43:06.538Z,19.68
2022-08-22T09:45:50.029Z,19.74
2022-08-22T09:48:34.434Z,19.84
2022-08-22T09:51:32.676Z,19.92
2022-08-22T09:54:23.486Z,20.04
2022-08-22T09:57:01.097Z,20.10
2022-08-22T09:59:44.866Z,20.12
2022-08-22T10:02:28.667Z,20.14
2022-08-22T10:05:04.160Z,20.12
2022-08-22T10:07:41.120Z,20.05
2022-08-22T10:10:23.376Z,20.06
2022-08-22T10:13:04.736Z,20.13
2022-08-22T10:15:43.375Z,20.28
2022-08-22T10:18:24.687Z,20.59
2022-08-22T10:21:12.992Z,21.02
2022-08-22T10:23:48.291Z,21.21
2022-08-22T10:26:35.250Z,21.29
2022-08-22T10:29:31.743Z,21.36
2022-08-22T10:32:14.427Z,21.40
2022-08-22T10:34:49.055Z,21.25
2022-08-22T10:37:30.516Z,21.03
2022-08-22T10:40:06.312Z,20.87
2022-08-22T10:42:37.630Z,20.79
2022-08-22T10:45:35.781Z,20.91
2022-08-22T10:48:35.563Z,21.20
2022-08-22T10:51:20.872Z,21.39
2022-08-22T10:54:12.943Z,21.59
2022-08-22T10:56:55.643Z,21.78
2022-08-22T10:59:38.049Z,21.82
2022-08-22T11:02:30.547Z,21.81
2022-08-22T11:05:24.734Z,21.74
2022-08-22T11:08:08.800Z,21.67
2022-08-22T11:10:52.585Z,21.64
2022-08-22T11:13:30.934Z,21.68
2022-08-22T11:16:22.917Z,21.66
2022-08-22T11:19:15.318Z,21.68
2022-08-22T11:21:57.105Z,21.65
2022-08-22T11:25:12.067Z,21.72
2022-08-22T11:27:52.975Z,21.75
2022-08-22T11:30:29.829Z,21.75
2022-08-22T11:33:32.487Z,21.72
2022-08-22T11:36:30.898Z,21.72
2022-08-22T11:39:09.893Z,21.68
2022-08-22T11:41:56.155Z,21.65
2022-08-22T11:44:31.285Z,21.67
2022-08-22T11:47:02.944Z,21.67
2022-08-22T11:49:40.422Z,21.69
2022-08-22T11:52:23.922Z,21.74
2022-08-22T11:55:17.789Z,21.78
2022-08-22T11:57:48.854Z,21.87
2022-08-22T12:00:25.313Z,21.92
2022-08-22T12:03:35.480Z,22.01
2022-08-22T12:06:09.691Z,22.05
2022-08-22T12:09:25.028Z,22.17
2022-08-22T12:12:04.709Z,22.22
2022-08-22T12:14:42.850Z,22.19
2022-08-22T12:17:50.803Z,22.16
2022-08-22T12:20:29.256Z,22.12
2022-08-22T12:23:20.918Z,22.14
2022-08-22T12:26:05.004Z,22.14
2022-08-22T12:28:53.807Z,22.13
2022-08-22T12:31:34.050Z,22.15
2022-08-22T12:34:21.525Z,22.19
2022-08-22T12:37:00.755Z,22.21
2022-08-22T12:39:53.809Z,22.20
2022-08-22T12:42:46.079Z,22.20
2022-08-22T12:45:33.561Z,22.22
2022-08-22T12:48:25.025Z,22.23
2022-08-22T12:50:59.761Z,22.26
2022-08-22T12:53:55.838Z,22.35
2022-08-22T12:56:34.540Z,22.35
2022-08-22T12:59:24.123Z,22.32
2022-08-22T13:01:55.883Z,22.32
2022-08-22T13:04:33.493Z,22.33
2022-08-22T13:07:18.398Z,22.38
2022-08-22T13:09:50.013Z,22.43
2022-08-22T13:12:28.226Z,22.51
2022-08-22T13:15:02.768Z,22.57
2022-08-22T13:17:32.457Z,22.60
2022-08-22T13:20:11.586Z,22.68
2022-08-22T13:22:45.703Z,22.69
2022-08-22T13:25:25.620Z,22.68
2022-08-22T13:27:56.276Z,22.72
2022-08-22T13:30:31.709Z,22.73
2022-08-22T13:33:09.856Z,22.70
2022-08-22T13:35:45.566Z,22.73
2022-08-22T13:38:25.849Z,22.76
2022-08-22T13:40:56.835Z,22.80
2022-08-22T13:43:28.032Z,22.82
2022-08-22T13:45:59.221Z,22.86
2022-08-22T13:48:47.156Z,22.86
2022-08-22T13:51:24.887Z,22.84
2022-08-22T13:54:02.216Z,22.71
2022-08-22T13:56:43.003Z,22.60
2022-08-22T13:59:49.190Z,22.47
2022-08-22T14:02:30.953Z,22.26
2022-08-22T14:05:06.701Z,22.12
2022-08-22T14:07:38.965Z,22.18
2022-08-22T14:10:12.551Z,22.25
2022-08-22T14:12:51.270Z,22.43
2022-08-22T14:15:24.622Z,22.65
2022-08-22T14:17:56.973Z,22.89
2022-08-22T14:20:33.565Z,23.22
2022-08-22T14:23:08.689Z,23.32
2022-08-22T14:25:39.127Z,23.44
2022-08-22T14:28:09.837Z,23.58
2022-08-22T14:30:59.365Z,23.77
2022-08-22T14:33:35.091Z,23.58
2022-08-22T14:36:17.200Z,23.82
2022-08-22T14:38:51.130Z,23.77
2022-08-22T14:41:52.758Z,23.80
2022-08-22T14:44:23.488Z,23.78
2022-08-22T14:46:56.246Z,23.63
2022-08-22T14:49:49.723Z,23.28
2022-08-22T14:52:48.477Z,22.93
2022-08-22T14:55:21.468Z,22.68
2022-08-22T14:57:54.847Z,22.41
2022-08-22T15:00:34.132Z,22.18
2022-08-22T15:03:17.149Z,22.03
2022-08-22T15:05:50.772Z,21.89
2022-08-22T15:08:27.660Z,21.99
2022-08-22T15:11:19.413Z,22.01
2022-08-22T15:13:54.380Z,22.03
2022-08-22T15:16:25.729Z,21.91
2022-08-22T15:18:54.558Z,21.81
2022-08-22T15:21:25.723Z,21.76
2022-08-22T15:23:59.622Z,21.58
2022-08-22T15:26:31.079Z,21.36
2022-08-22T15:29:06.972Z,21.26
2022-08-22T15:31:35.588Z,21.39
2022-08-22T15:34:11.882Z,21.47
2022-08-22T15:37:09.825Z,21.44
2022-08-22T15:40:03.039Z,21.50
2022-08-22T15:42:37.522Z,21.42
2022-08-22T15:45:07.018Z,21.35
2022-08-22T15:47:39.759Z,21.27
2022-08-22T15:50:14.777Z,21.26
2022-08-22T15:53:19.833Z,21.25
2022-08-22T15:56:23.785Z,21.14
2022-08-22T15:59:47.988Z,20.96
2022-08-22T16:02:31.561Z,20.73
2022-08-22T16:05:23.591Z,20.55
2022-08-22T16:08:02.723Z,20.50
2022-08-22T16:10:34.324Z,20.47
2022-08-22T16:13:16.870Z,20.46
2022-08-22T16:16:02.707Z,20.39
2022-08-22T16:19:15.413Z,20.38
2022-08-22T16:22:12.140Z,20.34
2022-08-22T16:25:00.700Z,20.28
2022-08-22T16:27:29.105Z,20.27
2022-08-22T16:30:06.902Z,20.25
2022-08-22T16:32:37.398Z,20.25
2022-08-22T16:35:05.887Z,20.24
2022-08-22T16:37:48.905Z,20.26
2022-08-22T16:40:22.665Z,20.28
2022-08-22T16:43:07.280Z,20.29
2022-08-22T16:45:39.036Z,20.28
2022-08-22T16:48:26.748Z,20.21
2022-08-22T16:51:19.124Z,20.18
2022-08-22T16:54:34.886Z,20.13
2022-08-22T16:57:09.514Z,20.09
2022-08-22T17:00:32.289Z,20.08
2022-08-22T17:03:11.720Z,19.98
2022-08-22T17:05:54.423Z,19.95
2022-08-22T17:08:51.468Z,19.91
2022-08-22T17:11:32.671Z,19.89
2022-08-22T17:14:32.742Z,19.87
2022-08-22T17:17:16.003Z,19.73
2022-08-22T17:19:59.013Z,19.62
2022-08-22T17:22:34.003Z,19.55
2022-08-22T17:25:18.677Z,19.55
2022-08-22T17:27:53.779Z,19.57
2022-08-22T17:30:27.430Z,19.54
2022-08-22T17:33:11.558Z,19.48
2022-08-22T17:35:59.081Z,19.38
2022-08-22T17:38:46.630Z,19.29
2022-08-22T17:41:32.484Z,19.17
2022-08-22T17:44:14.004Z,19.10
2022-08-22T17:46:51.325Z,19.08
2022-08-22T17:49:34.874Z,19.03
2022-08-22T17:52:10.828Z,18.99
2022-08-22T17:54:47.887Z,18.97
2022-08-22T17:57:28.223Z,18.95
2022-08-22T18:00:00.744Z,18.93
2022-08-22T18:02:33.660Z,18.91
2022-08-22T18:05:06.962Z,18.89
2022-08-22T18:07:47.041Z,18.88
2022-08-22T18:10:29.109Z,18.87
2022-08-22T18:13:06.864Z,18.86
2022-08-22T18:15:42.957Z,18.90
2022-08-22T18:18:21.171Z,18.92
2022-08-22T18:20:53.965Z,18.97
2022-08-22T18:23:36.288Z,18.97
2022-08-22T18:26:21.871Z,19.02
2022-08-22T18:28:55.434Z,18.98
2022-08-22T18:31:38.407Z,18.93
2022-08-22T18:34:15.446Z,18.95
2022-08-22T18:36:51.666Z,18.96
2022-08-22T18:39:27.132Z,18.93
2022-08-22T18:42:05.576Z,18.90
2022-08-22T18:44:39.906Z,18.86
2022-08-22T18:47:15.108Z,18.86
2022-08-22T18:49:53.909Z,18.86
2022-08-22T18:52:38.874Z,18.87
2022-08-22T18:55:39.645Z,18.84
2022-08-22T18:58:42.903Z,18.80
2022-08-22T19:01:41.322Z,18.77
2022-08-22T19:04:25.418Z,18.76
2022-08-22T19:07:12.171Z,18.77
2022-08-22T19:09:56.333Z,18.77
2022-08-22T19:12:42.983Z,18.77
2022-08-22T19:15:31.353Z,18.78
2022-08-22T19:18:42.730Z,18.73
2022-08-22T19:21:44.328Z,18.68
2022-08-22T19:24:29.758Z,18.63
2022-08-22T19:27:31.142Z,18.61
2022-08-22T19:30:02.482Z,18.59
2022-08-22T19:33:06.612Z,18.63
2022-08-22T19:35:47.175Z,18.60
2022-08-22T19:38:53.372Z,18.63
2022-08-22T19:41:45.378Z,18.64
2022-08-22T19:44:34.507Z,18.56
2022-08-22T19:47:09.339Z,18.57
2022-08-22T19:49:41.423Z,18.60
2022-08-22T19:52:25.052Z,18.60
2022-08-22T19:55:02.270Z,18.64
2022-08-22T19:57:42.998Z,18.68
2022-08-22T20:00:14.936Z,18.70
2022-08-22T20:02:57.407Z,18.73
2022-08-22T20:05:33.322Z,18.71
2022-08-22T20:08:40.888Z,18.70
2022-08-22T20:11:19.837Z,18.69
2022-08-22T20:13:48.641Z,18.70
2022-08-22T20:16:21.262Z,18.68
2022-08-22T20:19:11.771Z,18.68
2022-08-22T20:21:58.058Z,18.66
2022-08-22T20:24:39.789Z,18.65
2022-08-22T20:27:15.477Z,18.62
2022-08-22T20:29:49.164Z,18.62
2022-08-22T20:32:20.301Z,18.63
2022-08-22T20:34:52.076Z,18.66
2022-08-22T20:37:35.958Z,18.65
2022-08-22T20:40:56.058Z,18.67
2022-08-22T20:43:21.245Z,18.68
2022-08-22T20:46:01.551Z,18.69
2022-08-22T20:48:37.444Z,18.68
2022-08-22T20:51:06.904Z,18.67
2022-08-22T20:53:35.540Z,18.69
2022-08-22T20:56:08.085Z,18.69
2022-08-22T20:58:39.997Z,18.68
2022-08-22T21:01:11.731Z,18.69
2022-08-22T21:03:44.488Z,18.70
2022-08-22T21:06:15.244Z,18.72
2022-08-22T21:08:45.642Z,18.75
2022-08-22T21:11:40.675Z,18.76
2022-08-22T21:14:23.978Z,18.76
2022-08-22T21:16:53.140Z,18.73
2022-08-22T21:19:26.477Z,18.74
2022-08-22T21:21:55.116Z,18.74
2022-08-22T21:24:23.110Z,18.74
2022-08-22T21:26:57.934Z,18.74
2022-08-22T21:29:34.016Z,18.76
2022-08-22T21:32:16.871Z,18.73
2022-08-22T21:34:48.209Z,18.74
2022-08-22T21:37:19.255Z,18.73
2022-08-22T21:39:50.319Z,18.73
2022-08-22T21:42:26.438Z,18.73
2022-08-22T21:44:59.511Z,18.71
2022-08-22T21:47:31.731Z,18.66
2022-08-22T21:50:03.801Z,18.64
2022-08-22T21:52:34.859Z,18.62
2022-08-22T21:55:26.719Z,18.59
2022-08-22T21:58:13.418Z,18.56
2022-08-22T22:01:03.995Z,18.54
2022-08-22T22:03:36.822Z,18.53
2022-08-22T22:06:06.680Z,18.52
2022-08-22T22:08:34.951Z,18.51
2022-08-22T22:11:06.160Z,18.52
2022-08-22T22:13:38.257Z,18.52
2022-08-22T22:16:07.768Z,18.52
2022-08-22T22:18:37.501Z,18.50
2022-08-22T22:21:06.385Z,18.46
2022-08-22T22:23:34.350Z,18.44
2022-08-22T22:26:04.325Z,18.44
2022-08-22T22:28:35.511Z,18.45
2022-08-22T22:31:06.041Z,18.44
2022-08-22T22:33:37.202Z,18.46
2022-08-22T22:36:08.908Z,18.44
2022-08-22T22:38:38.038Z,18.45
2022-08-22T22:41:06.120Z,18.44
2022-08-22T22:43:34.723Z,18.44
2022-08-22T22:46:04.120Z,18.43
2022-08-22T22:48:32.619Z,18.44
2022-08-22T22:51:00.550Z,18.46
2022-08-22T22:53:38.403Z,18.47
2022-08-22T22:56:11.717Z,18.48
2022-08-22T22:58:40.022Z,18.48
2022-08-22T23:01:11.856Z,18.47
2022-08-22T23:03:40.105Z,18.50
2022-08-22T23:06:12.220Z,18.50
2022-08-22T23:08:40.360Z,18.50
2022-08-22T23:11:12.638Z,18.51
2022-08-22T23:13:42.889Z,18.51
2022-08-22T23:16:15.577Z,18.52
2022-08-22T23:18:44.525Z,18.53
2022-08-22T23:21:14.410Z,18.53
2022-08-22T23:23:42.491Z,18.53
2022-08-22T23:26:11.520Z,18.54
2022-08-22T23:28:40.041Z,18.54
2022-08-22T23:31:14.989Z,18.52
2022-08-22T23:33:43.463Z,18.50
2022-08-22T23:36:13.717Z,18.47
2022-08-22T23:38:41.891Z,18.45
2022-08-22T23:41:12.045Z,18.44
2022-08-22T23:43:43.367Z,18.44
2022-08-22T23:46:11.437Z,18.43
2022-08-22T23:48:41.160Z,18.43
2022-08-22T23:51:10.599Z,18.44
2022-08-22T23:53:39.471Z,18.44
2022-08-22T23:56:19.895Z,18.45
2022-08-22T23:58:49.141Z,18.46
